Portada
METAR-TAF:

METAR-TAF

Aeroports :

Base aèria Cameri

Novara, Itàlia

latitud: 45-31N, longitud: 008-40E, altitud: 178 m

Observació

L'informe es va fer fa 21 hores i 3 minuts, a les 07:55 UTC
Temperatura 1°C
Humitat 59%
Pressió 1016 hPa
Visibilitat 10 km o més
sense núvols per sota de 1500 mi sense presència de cumulonimbus.

METAR: LIMN 260755Z /////KT CAVOK 01/M06 Q1016 RMK SKC VIS MIN 9999 BLU

Hora: 05:58 (04:58 UTC)

Pronòstic

L'informe es va fer fa 14 hores i 58 minuts, a les 14:00 UTC
Pronòstic vàlid del 26 a les 15 UTC al 26 a les 24 UTC
Vent 6 kt del Nord
Visibilitat 10 km o més
sense núvols per sota de 1500 mi sense presència de cumulonimbus.

TAF: LIMN 261400Z 2615/2624 35006KT CAVOK

Observacions i pronòstics meteorològics de més de 4000 aeroports (METAR i TAF).

Les estacions disponibles són els punts grocs i vermells al mapa.

Posi el ratolí al punt desitjat per veure el nom de l'estació.

Feu clic per veure les observacions i els pronòstics meteorològics.

Per canviar el mapa: feu clic els botons verds amb una creu de color negre per apropar; al botó verd amb un guió per allunyar la imatge; o en les fletxes verdes per a mapes adjacents.


METAR-TAF: